createdAt,value
2023-10-20T00:01:51.942Z,9.58
2023-10-20T00:05:00.756Z,9.62
2023-10-20T00:08:16.386Z,9.65
2023-10-20T00:11:28.520Z,9.69
2023-10-20T00:14:42.267Z,9.72
2023-10-20T00:17:56.927Z,9.74
2023-10-20T00:21:10.354Z,9.74
2023-10-20T00:24:25.883Z,9.73
2023-10-20T00:27:39.021Z,9.80
2023-10-20T00:30:49.185Z,9.84
2023-10-20T00:34:00.564Z,9.86
2023-10-20T00:37:06.770Z,9.88
2023-10-20T00:40:20.072Z,9.82
2023-10-20T00:43:40.069Z,9.78
2023-10-20T00:46:50.936Z,9.73
2023-10-20T00:50:08.564Z,9.69
2023-10-20T00:53:21.628Z,9.69
2023-10-20T00:56:36.454Z,9.67
2023-10-20T00:59:48.455Z,9.66
2023-10-20T01:03:02.486Z,9.64
2023-10-20T01:06:15.069Z,9.59
2023-10-20T01:09:29.508Z,9.56
2023-10-20T01:12:40.350Z,9.58
2023-10-20T01:15:57.497Z,9.58
2023-10-20T01:19:07.763Z,9.60
2023-10-20T01:22:19.352Z,9.60
2023-10-20T01:25:34.670Z,9.62
2023-10-20T01:28:45.281Z,9.61
2023-10-20T01:31:57.981Z,9.62
2023-10-20T01:35:14.891Z,9.60
2023-10-20T01:38:25.543Z,9.61
2023-10-20T01:41:39.039Z,9.64
2023-10-20T01:44:54.995Z,9.68
2023-10-20T01:48:08.321Z,9.69
2023-10-20T01:51:22.714Z,9.71
2023-10-20T01:54:42.267Z,9.73
2023-10-20T01:57:55.174Z,9.75
2023-10-20T02:01:07.337Z,9.78
2023-10-20T02:04:22.275Z,9.77
2023-10-20T02:07:32.334Z,9.77
2023-10-20T02:10:42.686Z,9.78
2023-10-20T02:13:57.940Z,9.78
2023-10-20T02:17:12.903Z,9.72
2023-10-20T02:20:26.624Z,9.71
2023-10-20T02:23:40.568Z,9.72
2023-10-20T02:26:52.338Z,9.71
2023-10-20T02:30:04.794Z,9.70
2023-10-20T02:33:16.742Z,9.67
2023-10-20T02:36:32.343Z,9.70
2023-10-20T02:39:44.776Z,9.72
2023-10-20T02:43:01.869Z,9.76
2023-10-20T02:46:12.732Z,9.75
2023-10-20T02:49:23.077Z,9.77
2023-10-20T02:52:41.186Z,9.80
2023-10-20T02:55:54.445Z,9.83
2023-10-20T02:59:08.666Z,9.87
2023-10-20T03:02:26.621Z,9.88
2023-10-20T03:05:39.381Z,9.87
2023-10-20T03:08:51.022Z,9.89
2023-10-20T03:12:05.235Z,9.93
2023-10-20T03:15:22.200Z,9.96
2023-10-20T03:18:38.123Z,9.95
2023-10-20T03:21:53.255Z,9.97
2023-10-20T03:25:02.750Z,9.93
2023-10-20T03:28:14.860Z,9.90
2023-10-20T03:31:28.784Z,9.89
2023-10-20T03:34:46.117Z,9.91
2023-10-20T03:37:59.876Z,9.91
2023-10-20T03:41:17.842Z,9.92
2023-10-20T03:44:31.609Z,9.92
2023-10-20T03:47:42.267Z,9.91
2023-10-20T03:50:55.579Z,9.91
2023-10-20T03:54:06.412Z,9.95
2023-10-20T03:57:18.757Z,9.98
2023-10-20T04:00:36.486Z,9.99
2023-10-20T04:03:54.700Z,9.98
2023-10-20T04:07:07.302Z,10.00
2023-10-20T04:10:18.459Z,10.03
2023-10-20T04:13:35.672Z,10.06
2023-10-20T04:16:48.028Z,10.13
2023-10-20T04:19:58.602Z,10.22
2023-10-20T04:23:12.337Z,10.21
2023-10-20T04:26:26.439Z,10.22
2023-10-20T04:29:52.978Z,10.17
2023-10-20T04:33:30.372Z,10.12
2023-10-20T04:37:04.263Z,10.10
2023-10-20T04:40:33.198Z,10.09
2023-10-20T04:43:46.518Z,10.14
2023-10-20T04:47:06.552Z,10.19
2023-10-20T04:50:38.133Z,10.27
2023-10-20T04:53:58.107Z,10.23
2023-10-20T04:57:28.465Z,10.30
2023-10-20T05:00:45.218Z,10.22
2023-10-20T05:04:01.556Z,10.20
2023-10-20T05:07:14.165Z,10.18
2023-10-20T05:10:33.003Z,10.15
2023-10-20T05:13:46.349Z,10.17
2023-10-20T05:16:58.140Z,10.17
2023-10-20T05:20:10.116Z,10.17
2023-10-20T05:23:26.270Z,10.18
2023-10-20T05:26:35.373Z,10.20
2023-10-20T05:29:50.920Z,10.20
2023-10-20T05:33:00.644Z,10.22
2023-10-20T05:36:11.666Z,10.31
2023-10-20T05:39:24.395Z,10.41
2023-10-20T05:42:36.666Z,10.48
2023-10-20T05:45:46.203Z,10.54
2023-10-20T05:48:52.703Z,10.58
2023-10-20T05:51:58.025Z,10.62
2023-10-20T05:55:04.870Z,10.66
2023-10-20T05:58:14.044Z,10.72
2023-10-20T06:01:23.819Z,10.85
2023-10-20T06:04:34.603Z,10.98
2023-10-20T06:07:43.390Z,11.08
2023-10-20T06:10:53.266Z,11.12
2023-10-20T06:14:01.391Z,11.19
2023-10-20T06:17:12.238Z,11.27
2023-10-20T06:20:21.256Z,11.40
2023-10-20T06:23:32.058Z,11.42
2023-10-20T06:26:41.582Z,11.48
2023-10-20T06:29:57.837Z,11.57
2023-10-20T06:33:20.429Z,11.65
2023-10-20T06:36:30.884Z,11.79
2023-10-20T06:39:41.203Z,11.89
2023-10-20T06:42:50.839Z,12.06
2023-10-20T06:46:06.902Z,12.15
2023-10-20T06:49:23.823Z,12.31
2023-10-20T06:52:34.106Z,12.39
2023-10-20T06:56:08.827Z,12.49
2023-10-20T06:59:17.584Z,12.56
2023-10-20T07:02:26.272Z,12.75
2023-10-20T07:05:39.792Z,12.75
2023-10-20T07:08:54.797Z,12.77
2023-10-20T07:12:04.604Z,12.83
2023-10-20T07:15:12.210Z,12.85
2023-10-20T07:18:17.338Z,12.86
2023-10-20T07:21:23.158Z,12.84
2023-10-20T07:24:29.091Z,12.84
2023-10-20T07:27:36.079Z,12.85
2023-10-20T07:30:47.024Z,12.92
2023-10-20T07:33:56.178Z,13.10
2023-10-20T07:37:06.958Z,13.33
2023-10-20T07:40:12.511Z,13.63
2023-10-20T07:43:19.340Z,13.81
2023-10-20T07:46:27.643Z,14.00
2023-10-20T07:49:33.485Z,14.12
2023-10-20T07:52:42.769Z,14.21
2023-10-20T07:55:50.609Z,14.29
2023-10-20T07:59:05.533Z,14.34
2023-10-20T08:02:18.061Z,14.38
2023-10-20T08:05:28.624Z,14.44
2023-10-20T08:08:40.399Z,14.50
2023-10-20T08:11:48.985Z,14.68
2023-10-20T08:14:54.542Z,14.91
2023-10-20T08:18:04.515Z,15.08
2023-10-20T08:21:10.789Z,15.24
2023-10-20T08:24:16.537Z,15.40
2023-10-20T08:27:22.499Z,15.55
2023-10-20T08:30:29.971Z,15.70
2023-10-20T08:33:37.080Z,15.80
2023-10-20T08:36:46.238Z,15.95
2023-10-20T08:39:51.254Z,16.06
2023-10-20T08:42:57.054Z,16.20
2023-10-20T08:46:05.821Z,16.41
2023-10-20T08:49:14.519Z,16.62
2023-10-20T08:52:23.127Z,16.79
2023-10-20T08:55:31.619Z,16.88
2023-10-20T08:58:41.500Z,16.90
2023-10-20T09:01:52.543Z,16.85
2023-10-20T09:04:58.593Z,16.78
2023-10-20T09:08:09.172Z,16.82
2023-10-20T09:11:22.942Z,16.91
2023-10-20T09:14:30.376Z,16.97
2023-10-20T09:17:47.313Z,17.08
2023-10-20T09:21:09.730Z,17.13
2023-10-20T09:24:15.655Z,17.35
2023-10-20T09:27:24.099Z,17.44
2023-10-20T09:30:37.256Z,17.69
2023-10-20T09:33:49.223Z,17.92
2023-10-20T09:36:58.684Z,18.22
2023-10-20T09:40:10.086Z,18.44
2023-10-20T09:43:29.334Z,18.62
2023-10-20T09:46:47.132Z,18.83
2023-10-20T09:49:58.107Z,19.04
2023-10-20T09:53:12.589Z,19.27
2023-10-20T09:56:25.527Z,19.61
2023-10-20T09:59:37.557Z,19.99
2023-10-20T10:02:46.735Z,20.18
2023-10-20T10:05:57.866Z,20.29
2023-10-20T10:09:11.854Z,20.59
2023-10-20T10:12:24.889Z,20.65
2023-10-20T10:15:41.871Z,20.60
2023-10-20T10:18:50.732Z,20.70
2023-10-20T10:22:01.194Z,20.78
2023-10-20T10:25:10.217Z,20.81
2023-10-20T10:28:19.337Z,20.90
2023-10-20T10:31:38.860Z,20.94
2023-10-20T10:34:49.953Z,20.96
2023-10-20T10:38:02.558Z,21.02
2023-10-20T10:41:12.761Z,21.16
2023-10-20T10:44:24.277Z,21.16
2023-10-20T10:47:28.910Z,21.23
2023-10-20T10:50:39.374Z,21.26
2023-10-20T10:53:45.768Z,21.36
2023-10-20T10:56:58.895Z,21.57
2023-10-20T11:00:08.402Z,21.66
2023-10-20T11:03:20.729Z,21.82
2023-10-20T11:06:33.357Z,21.92
2023-10-20T11:09:43.019Z,22.07
2023-10-20T11:12:52.384Z,22.24
2023-10-20T11:16:11.550Z,22.38
2023-10-20T11:19:28.425Z,22.50
2023-10-20T11:22:38.823Z,22.60
2023-10-20T11:25:47.171Z,22.62
2023-10-20T11:28:57.911Z,22.83
2023-10-20T11:32:10.757Z,23.07
2023-10-20T11:35:24.377Z,23.38
2023-10-20T11:38:35.077Z,23.62
2023-10-20T11:41:42.502Z,23.73
2023-10-20T11:44:48.661Z,23.80
2023-10-20T11:47:58.217Z,23.70
2023-10-20T11:51:05.450Z,23.68
2023-10-20T11:54:14.777Z,23.82
2023-10-20T11:57:25.536Z,23.84
2023-10-20T12:00:43.257Z,23.80
2023-10-20T12:03:51.321Z,23.83
2023-10-20T12:07:00.709Z,23.75
2023-10-20T12:10:10.473Z,23.61
2023-10-20T12:13:19.408Z,23.54
2023-10-20T12:16:32.023Z,23.50
2023-10-20T12:19:43.372Z,23.61
2023-10-20T12:23:02.388Z,23.66
2023-10-20T12:26:12.999Z,23.66
2023-10-20T12:29:26.594Z,23.61
2023-10-20T12:32:39.435Z,23.54
2023-10-20T12:35:48.680Z,23.64
2023-10-20T12:38:57.085Z,23.60
2023-10-20T12:42:06.908Z,23.62
2023-10-20T12:45:18.128Z,23.73
2023-10-20T12:48:30.644Z,23.80
2023-10-20T12:51:43.373Z,23.82
2023-10-20T12:54:54.625Z,23.85
2023-10-20T12:58:03.976Z,23.92
2023-10-20T13:01:10.952Z,24.04
2023-10-20T13:04:17.425Z,24.13
2023-10-20T13:07:27.067Z,24.14
2023-10-20T13:10:34.734Z,24.18
2023-10-20T13:13:40.005Z,24.15
2023-10-20T13:16:44.924Z,24.18
2023-10-20T13:19:53.231Z,24.17
2023-10-20T13:22:57.413Z,24.08
2023-10-20T13:26:07.923Z,23.95
2023-10-20T13:29:13.239Z,23.75
2023-10-20T13:32:20.207Z,23.64
2023-10-20T13:35:27.186Z,23.60
2023-10-20T13:38:38.932Z,23.54
2023-10-20T13:41:45.856Z,23.46
2023-10-20T13:44:54.790Z,23.32
2023-10-20T13:48:01.124Z,23.18
2023-10-20T13:51:09.246Z,23.11
2023-10-20T13:54:20.552Z,23.10
2023-10-20T13:57:28.226Z,22.99
2023-10-20T14:00:31.540Z,22.88
2023-10-20T14:03:36.952Z,22.72
2023-10-20T14:06:47.083Z,22.72
2023-10-20T14:09:54.801Z,22.68
2023-10-20T14:13:04.811Z,22.71
2023-10-20T14:16:16.989Z,22.75
2023-10-20T14:19:29.532Z,22.74
2023-10-20T14:22:39.755Z,22.77
2023-10-20T14:25:51.764Z,22.76
2023-10-20T14:29:03.255Z,22.60
2023-10-20T14:32:16.169Z,22.48
2023-10-20T14:35:30.924Z,22.36
2023-10-20T14:38:42.746Z,22.30
2023-10-20T14:41:56.398Z,22.23
2023-10-20T14:45:11.070Z,22.11
2023-10-20T14:48:21.006Z,21.97
2023-10-20T14:51:33.226Z,21.92
2023-10-20T14:54:45.878Z,21.93
2023-10-20T14:57:58.110Z,21.87
2023-10-20T15:01:09.040Z,21.75
2023-10-20T15:04:29.691Z,21.67
2023-10-20T15:07:42.199Z,21.65
2023-10-20T15:10:49.964Z,21.53
2023-10-20T15:14:01.919Z,21.48
2023-10-20T15:17:12.713Z,21.40
2023-10-20T15:20:26.637Z,21.31
2023-10-20T15:23:35.908Z,21.25
2023-10-20T15:26:49.749Z,21.31
2023-10-20T15:30:02.824Z,21.26
2023-10-20T15:33:13.421Z,21.22
2023-10-20T15:36:23.816Z,21.18
2023-10-20T15:39:53.120Z,21.18
2023-10-20T15:43:18.216Z,21.18
2023-10-20T15:46:34.392Z,21.16
2023-10-20T15:49:58.235Z,21.06
2023-10-20T15:53:19.377Z,21.06
2023-10-20T15:56:32.088Z,21.08
2023-10-20T15:59:42.794Z,21.02
2023-10-20T16:03:00.701Z,21.03
2023-10-20T16:06:14.072Z,21.04
2023-10-20T16:09:30.684Z,20.99
2023-10-20T16:12:42.774Z,21.00
2023-10-20T16:15:57.337Z,21.08
2023-10-20T16:19:07.706Z,21.05
2023-10-20T16:22:23.345Z,20.95
2023-10-20T16:25:36.148Z,20.83
2023-10-20T16:28:47.685Z,20.81
2023-10-20T16:32:02.786Z,20.66
2023-10-20T16:35:15.038Z,20.53
2023-10-20T16:38:28.860Z,20.50
2023-10-20T16:41:42.278Z,20.50
2023-10-20T16:44:55.048Z,20.35
2023-10-20T16:48:08.443Z,20.25
2023-10-20T16:51:24.628Z,20.14
2023-10-20T16:54:36.726Z,20.09
2023-10-20T16:57:51.670Z,20.07
2023-10-20T17:01:07.828Z,20.06
2023-10-20T17:04:18.586Z,20.11
2023-10-20T17:07:32.796Z,20.04
2023-10-20T17:10:46.751Z,19.99
2023-10-20T17:13:56.613Z,19.86
2023-10-20T17:17:08.443Z,19.82
2023-10-20T17:20:24.236Z,19.74
2023-10-20T17:23:36.596Z,19.62
2023-10-20T17:26:47.712Z,19.55
2023-10-20T17:30:02.674Z,19.52
2023-10-20T17:33:14.185Z,19.59
2023-10-20T17:36:28.945Z,19.65
2023-10-20T17:39:43.457Z,19.65
2023-10-20T17:42:58.870Z,19.70
2023-10-20T17:46:08.236Z,19.82
2023-10-20T17:49:17.716Z,19.92
2023-10-20T17:52:33.710Z,20.04
2023-10-20T17:55:47.827Z,20.06
2023-10-20T17:58:58.056Z,20.05
2023-10-20T18:02:14.081Z,20.11
2023-10-20T18:05:26.309Z,20.10
2023-10-20T18:08:37.099Z,20.07
2023-10-20T18:11:47.278Z,20.08
2023-10-20T18:15:00.866Z,19.95
2023-10-20T18:18:16.387Z,19.94
2023-10-20T18:21:28.201Z,19.95
2023-10-20T18:24:39.490Z,19.96
2023-10-20T18:27:48.639Z,20.02
2023-10-20T18:31:04.660Z,19.93
2023-10-20T18:34:11.796Z,19.76
2023-10-20T18:37:27.569Z,19.68
2023-10-20T18:40:39.830Z,19.59
2023-10-20T18:43:54.758Z,19.55
2023-10-20T18:47:04.599Z,19.56
2023-10-20T18:50:16.602Z,19.48
2023-10-20T18:53:27.019Z,19.49
2023-10-20T18:56:38.640Z,19.65
2023-10-20T18:59:53.017Z,19.68
2023-10-20T19:03:05.274Z,19.69
2023-10-20T19:06:16.374Z,19.78
2023-10-20T19:09:31.302Z,19.93
2023-10-20T19:12:40.794Z,20.08
2023-10-20T19:15:53.979Z,20.06
2023-10-20T19:19:02.212Z,20.13
2023-10-20T19:22:18.694Z,20.20
2023-10-20T19:25:29.380Z,20.22
2023-10-20T19:28:46.994Z,20.21
2023-10-20T19:31:58.928Z,20.07
2023-10-20T19:35:13.521Z,19.89
2023-10-20T19:38:25.191Z,19.78
2023-10-20T19:41:40.622Z,19.75
2023-10-20T19:44:50.917Z,19.72
2023-10-20T19:48:02.701Z,19.74
2023-10-20T19:51:16.785Z,19.92
2023-10-20T19:54:32.485Z,19.91
2023-10-20T19:57:45.106Z,19.84
2023-10-20T20:01:00.844Z,19.79
2023-10-20T20:04:11.642Z,19.84
2023-10-20T20:07:21.972Z,19.82
2023-10-20T20:10:35.463Z,19.90
2023-10-20T20:13:48.849Z,19.98
2023-10-20T20:17:03.385Z,20.08
2023-10-20T20:20:14.459Z,20.07
2023-10-20T20:23:29.903Z,20.01
2023-10-20T20:26:42.538Z,20.05
2023-10-20T20:29:53.062Z,19.90
2023-10-20T20:33:04.027Z,19.87
2023-10-20T20:36:17.687Z,19.74
2023-10-20T20:39:31.000Z,19.68
2023-10-20T20:42:41.881Z,19.65
2023-10-20T20:45:57.599Z,19.65
2023-10-20T20:49:07.854Z,19.81
2023-10-20T20:52:21.914Z,19.83
2023-10-20T20:55:37.238Z,19.75
2023-10-20T20:58:45.276Z,19.65
2023-10-20T21:01:59.843Z,19.72
2023-10-20T21:05:14.200Z,19.59
2023-10-20T21:08:29.349Z,19.46
2023-10-20T21:11:40.152Z,19.31
2023-10-20T21:14:55.092Z,19.18
2023-10-20T21:18:07.672Z,19.16
2023-10-20T21:21:19.285Z,19.23
2023-10-20T21:24:28.792Z,19.24
2023-10-20T21:27:43.826Z,19.32
2023-10-20T21:30:56.358Z,19.36
2023-10-20T21:34:08.857Z,19.44
2023-10-20T21:37:23.983Z,19.33
2023-10-20T21:40:36.238Z,19.39
2023-10-20T21:43:48.969Z,19.31
2023-10-20T21:47:02.010Z,19.24
2023-10-20T21:50:11.679Z,19.22
2023-10-20T21:53:26.663Z,19.15
2023-10-20T21:56:38.867Z,19.18
2023-10-20T21:59:55.412Z,19.11
2023-10-20T22:03:08.442Z,19.08
2023-10-20T22:06:21.193Z,19.03
2023-10-20T22:09:46.584Z,19.01
2023-10-20T22:13:11.941Z,18.97
2023-10-20T22:16:25.627Z,18.89
2023-10-20T22:19:48.372Z,18.88
2023-10-20T22:23:03.038Z,18.89
2023-10-20T22:26:17.320Z,18.83
2023-10-20T22:29:35.024Z,18.78
2023-10-20T22:32:50.144Z,18.82
2023-10-20T22:36:00.963Z,18.77
2023-10-20T22:39:12.714Z,18.73
2023-10-20T22:42:25.317Z,18.63
2023-10-20T22:45:43.879Z,18.50
2023-10-20T22:48:58.043Z,18.46
2023-10-20T22:52:11.050Z,18.44
2023-10-20T22:55:23.924Z,18.43
2023-10-20T22:58:37.460Z,18.41
2023-10-20T23:01:50.495Z,18.31
2023-10-20T23:05:03.284Z,18.23
2023-10-20T23:08:14.420Z,18.19
2023-10-20T23:11:26.880Z,18.13
2023-10-20T23:14:41.071Z,18.05
2023-10-20T23:17:55.488Z,18.05
2023-10-20T23:21:07.207Z,17.90
2023-10-20T23:24:18.242Z,17.81
2023-10-20T23:27:34.656Z,17.74
2023-10-20T23:30:50.131Z,17.63
2023-10-20T23:34:03.097Z,17.57
2023-10-20T23:37:15.068Z,17.55
2023-10-20T23:40:29.929Z,17.53
2023-10-20T23:43:44.773Z,17.78
2023-10-20T23:46:57.674Z,18.09
2023-10-20T23:50:11.155Z,18.21
2023-10-20T23:53:21.017Z,18.22
2023-10-20T23:56:31.770Z,18.18
2023-10-20T23:59:43.075Z,18.19
